Time;durP1;ratioP1;P1;durP2;ratioP2;P2;SDS_P1;SDS_P2;PMS_P1;PMS_P2;Temp;Humidity;BMP_temperature;BMP_pressure;BME280_temperature;BME280_humidity;BME280_pressure;Samples;Min_cycle;Max_cycle;Signal;HPM_P1;HPM_P2
2021/04/21 00:00:18;;;;;;;19.90;17.80;;;11.80;99.90;;;;;;5016118;28;20481;-73
2021/04/21 00:02:48;;;;;;;21.97;18.80;;;11.70;99.90;;;;;;5015354;28;20918;-73
2021/04/21 00:05:15;;;;;;;19.83;17.67;;;11.70;99.90;;;;;;5014969;28;20441;-72
2021/04/21 00:07:41;;;;;;;18.70;16.70;;;11.70;99.90;;;;;;5014629;28;20446;-72
2021/04/21 00:10:09;;;;;;;18.33;16.30;;;11.70;99.90;;;;;;5016753;28;20888;-72
2021/04/21 00:12:36;;;;;;;21.30;17.83;;;11.70;99.90;;;;;;5015197;28;20430;-73
2021/04/21 00:15:04;;;;;;;23.57;16.80;;;11.70;99.90;;;;;;5016333;28;20457;-73
2021/04/21 00:17:30;;;;;;;21.80;17.40;;;11.60;99.90;;;;;;5015640;28;20473;-73
2021/04/21 00:19:58;;;;;;;18.30;16.10;;;11.60;99.90;;;;;;5016226;28;20439;-73
2021/04/21 00:22:27;;;;;;;23.50;17.93;;;11.60;99.90;;;;;;5015965;28;20180;-73
2021/04/21 00:24:54;;;;;;;26.87;18.20;;;11.60;99.90;;;;;;5015518;28;20776;-72
2021/04/21 00:27:22;;;;;;;22.40;18.73;;;11.50;99.90;;;;;;5015403;28;20453;-73
2021/04/21 00:29:52;;;;;;;22.73;19.60;;;11.50;99.90;;;;;;5015806;28;20411;-70
2021/04/21 00:32:20;;;;;;;23.70;21.20;;;11.50;99.90;;;;;;5014323;28;20439;-72
2021/04/21 00:34:48;;;;;;;25.43;19.50;;;11.40;99.90;;;;;;5015185;28;20664;-72
2021/04/21 00:37:15;;;;;;;23.23;19.37;;;11.50;99.90;;;;;;5015518;28;20442;-72
2021/04/21 00:39:43;;;;;;;23.67;19.80;;;11.40;99.90;;;;;;5015448;28;20430;-72
2021/04/21 00:42:49;;;;;;;22.93;19.07;;;11.40;99.90;;;;;;5015246;28;20509;-72
2021/04/21 00:45:17;;;;;;;21.10;17.33;;;11.40;99.90;;;;;;5011708;28;20513;-72
2021/04/21 00:47:53;;;;;;;20.90;18.70;;;11.30;99.90;;;;;;5012907;28;20789;-72
2021/04/21 00:50:38;;;;;;;21.60;19.27;;;11.30;99.90;;;;;;5012377;28;20477;-72
2021/04/21 00:53:27;;;;;;;21.20;17.40;;;11.20;99.90;;;;;;5012668;28;21031;-72
2021/04/21 00:56:21;;;;;;;22.67;18.73;;;11.20;99.90;;;;;;5011136;28;21049;-72
2021/04/21 00:59:06;;;;;;;22.00;19.60;;;11.20;99.90;;;;;;4996193;28;20449;-72
2021/04/21 01:01:33;;;;;;;24.93;19.80;;;11.10;99.90;;;;;;5002912;28;20438;-72
2021/04/21 01:04:00;;;;;;;26.63;19.10;;;11.00;99.90;;;;;;4993071;28;20498;-72
2021/04/21 01:06:37;;;;;;;21.90;18.60;;;11.00;99.90;;;;;;5001147;28;20437;-72
2021/04/21 01:09:06;;;;;;;23.00;19.60;;;11.00;99.90;;;;;;5011473;28;20438;-72
2021/04/21 01:11:43;;;;;;;23.50;19.70;;;11.00;99.90;;;;;;4976896;28;20446;-72
2021/04/21 01:14:14;;;;;;;21.17;18.67;;;11.00;99.90;;;;;;4992662;28;20438;-72
2021/04/21 01:16:41;;;;;;;25.93;21.50;;;10.90;99.90;;;;;;4997268;28;20474;-72
2021/04/21 01:19:19;;;;;;;26.23;22.03;;;10.90;99.90;;;;;;5012765;28;20513;-72
2021/04/21 01:21:49;;;;;;;27.60;22.63;;;10.80;99.90;;;;;;5015312;28;20403;-72
2021/04/21 01:24:34;;;;;;;25.00;21.70;;;10.80;99.90;;;;;;5014488;28;20574;-72
2021/04/21 01:27:12;;;;;;;25.47;22.00;;;10.90;99.90;;;;;;5014174;28;20469;-72
2021/04/21 01:29:41;;;;;;;26.87;22.27;;;10.90;99.90;;;;;;5014417;28;20423;-72
2021/04/21 01:32:29;;;;;;;23.40;20.43;;;10.90;99.90;;;;;;5013715;28;20480;-72
2021/04/21 01:34:56;;;;;;;25.10;20.73;;;10.90;99.90;;;;;;5014310;28;20458;-71
2021/04/21 01:37:26;;;;;;;24.47;20.10;;;10.90;99.90;;;;;;5014064;28;20461;-71
2021/04/21 01:39:57;;;;;;;23.50;21.00;;;10.90;99.90;;;;;;5014922;28;20415;-72
2021/04/21 01:42:27;;;;;;;20.87;18.40;;;10.90;99.90;;;;;;5014430;28;20390;-72
2021/04/21 01:44:55;;;;;;;22.93;19.20;;;10.80;99.90;;;;;;5015311;28;20903;-72
2021/04/21 01:47:22;;;;;;;25.20;21.00;;;10.80;99.90;;;;;;5029984;28;20454;-72
2021/04/21 01:50:06;;;;;;;28.90;22.07;;;10.90;99.90;;;;;;5038140;28;20406;-72
2021/04/21 01:52:40;;;;;;;27.30;22.03;;;10.80;99.90;;;;;;5025663;28;20438;-72
2021/04/21 01:55:21;;;;;;;24.47;21.77;;;10.70;99.90;;;;;;5015376;28;21036;-72
2021/04/21 01:57:55;;;;;;;26.03;21.40;;;10.60;99.90;;;;;;5014318;28;20450;-72
2021/04/21 02:00:35;;;;;;;24.10;21.20;;;10.70;99.90;;;;;;5013643;28;20460;-72
2021/04/21 02:03:14;;;;;;;24.73;20.30;;;10.70;99.90;;;;;;5014151;28;20469;-72
2021/04/21 02:05:58;;;;;;;25.00;21.40;;;10.70;99.90;;;;;;5014425;28;20426;-72
2021/04/21 02:08:33;;;;;;;24.73;20.70;;;10.70;99.90;;;;;;5014450;28;20438;-73
2021/04/21 02:11:07;;;;;;;22.83;20.33;;;10.70;99.90;;;;;;5013726;28;20429;-70
2021/04/21 02:14:00;;;;;;;27.53;21.03;;;10.60;99.90;;;;;;5013555;28;20429;-73
2021/04/21 02:16:55;;;;;;;28.57;21.10;;;10.60;99.90;;;;;;5013926;28;20447;-73
2021/04/21 02:19:45;;;;;;;24.90;21.60;;;10.60;99.90;;;;;;5012901;28;20504;-73
2021/04/21 02:22:26;;;;;;;28.20;22.70;;;10.50;99.90;;;;;;5013560;28;20418;-73
2021/04/21 02:25:29;;;;;;;27.20;21.30;;;10.40;99.90;;;;;;5014090;28;20502;-73
2021/04/21 02:28:25;;;;;;;28.13;22.87;;;10.30;99.90;;;;;;5013666;28;20513;-73
2021/04/21 02:31:05;;;;;;;29.00;25.90;;;10.30;99.90;;;;;;5011223;28;20519;-72
2021/04/21 02:34:11;;;;;;;27.00;23.03;;;10.30;99.90;;;;;;5012161;28;20179;-72
2021/04/21 02:36:44;;;;;;;26.13;22.47;;;10.30;99.90;;;;;;5012546;28;20982;-72
2021/04/21 02:39:21;;;;;;;23.50;21.03;;;10.40;99.90;;;;;;5012466;28;20418;-71
2021/04/21 02:41:55;;;;;;;25.23;21.57;;;10.50;99.90;;;;;;5013288;28;20409;-72
2021/04/21 02:44:36;;;;;;;29.67;22.97;;;10.50;99.90;;;;;;5014054;28;20432;-71
2021/04/21 02:47:16;;;;;;;27.30;21.90;;;10.50;99.90;;;;;;5011827;28;20434;-72
2021/04/21 02:50:02;;;;;;;25.73;21.37;;;10.40;99.90;;;;;;5013509;28;20430;-71
2021/04/21 02:52:36;;;;;;;26.07;21.47;;;10.40;99.90;;;;;;5013091;28;20414;-73
2021/04/21 02:55:05;;;;;;;27.30;20.67;;;10.50;99.90;;;;;;5013452;28;20441;-71
2021/04/21 02:57:55;;;;;;;26.50;23.50;;;10.50;99.90;;;;;;5013659;28;20426;-71
2021/04/21 03:00:27;;;;;;;28.53;22.37;;;10.50;99.90;;;;;;5013114;28;20454;-72
2021/04/21 03:03:12;;;;;;;29.17;22.33;;;10.50;99.90;;;;;;5012550;28;20415;-72
2021/04/21 03:05:43;;;;;;;27.13;22.60;;;10.40;99.90;;;;;;5012627;28;20931;-72
2021/04/21 03:08:12;;;;;;;27.73;23.60;;;10.40;99.90;;;;;;5013990;28;20787;-72
2021/04/21 03:11:04;;;;;;;27.70;23.67;;;10.20;99.90;;;;;;5011929;28;20461;-72
2021/04/21 03:13:35;;;;;;;35.23;25.30;;;10.10;99.90;;;;;;4999763;28;20764;-72
2021/04/21 03:16:06;;;;;;;27.50;23.10;;;10.00;99.90;;;;;;5013837;28;20454;-72
2021/04/21 03:18:33;;;;;;;31.00;23.97;;;10.00;99.90;;;;;;5013237;28;21225;-72
2021/04/21 03:21:11;;;;;;;30.43;23.50;;;10.00;99.90;;;;;;5013136;28;20481;-72
2021/04/21 03:23:41;;;;;;;31.77;25.10;;;10.10;99.90;;;;;;5014707;28;20813;-72
2021/04/21 03:26:07;;;;;;;30.57;26.67;;;10.10;99.90;;;;;;5017197;28;20399;-72
2021/04/21 03:28:34;;;;;;;36.07;24.60;;;10.10;99.90;;;;;;5017073;28;20488;-71
2021/04/21 03:31:05;;;;;;;29.67;24.70;;;10.10;99.90;;;;;;5016923;28;20424;-71
2021/04/21 03:33:48;;;;;;;27.77;24.27;;;10.10;99.90;;;;;;5016934;28;20969;-71
2021/04/21 03:36:16;;;;;;;34.35;27.15;;;10.00;99.90;;;;;;5016149;28;20438;-72
2021/04/21 03:38:43;;;;;;;43.83;26.50;;;10.00;99.90;;;;;;5016661;28;20564;-71
2021/04/21 03:41:09;;;;;;;31.50;24.70;;;10.00;99.90;;;;;;5016899;28;20398;-72
2021/04/21 03:43:35;;;;;;;32.33;23.90;;;10.00;99.90;;;;;;5016286;28;20426;-72
2021/04/21 03:46:01;;;;;;;32.00;24.53;;;10.00;99.90;;;;;;5016259;28;20186;-72
2021/04/21 03:48:27;;;;;;;28.23;24.07;;;10.10;99.90;;;;;;5016221;28;20446;-72
2021/04/21 03:50:55;;;;;;;27.60;23.43;;;10.10;99.90;;;;;;5014330;28;20442;-72
2021/04/21 03:53:25;;;;;;;31.30;26.53;;;10.10;99.90;;;;;;5016475;28;20414;-73
2021/04/21 03:55:55;;;;;;;28.40;23.13;;;10.10;99.90;;;;;;5016539;28;20458;-73
2021/04/21 03:58:21;;;;;;;29.63;23.20;;;10.10;99.90;;;;;;5016530;28;20831;-73
2021/04/21 04:01:03;;;;;;;30.93;24.73;;;10.20;99.90;;;;;;5016197;28;20421;-72
2021/04/21 04:03:30;;;;;;;25.37;22.40;;;10.20;99.90;;;;;;5016491;28;20443;-72
2021/04/21 04:06:03;;;;;;;28.13;23.70;;;10.30;99.90;;;;;;5014599;28;20446;-73
2021/04/21 04:08:37;;;;;;;27.53;22.67;;;10.30;99.90;;;;;;5008830;28;20442;-73
2021/04/21 04:11:05;;;;;;;34.63;25.20;;;10.30;99.90;;;;;;5011045;28;20444;-73
2021/04/21 04:13:34;;;;;;;28.77;22.47;;;10.30;99.90;;;;;;5003818;28;20509;-70
2021/04/21 04:16:01;;;;;;;33.07;23.90;;;10.20;99.90;;;;;;5002858;28;20458;-72
2021/04/21 04:18:29;;;;;;;30.37;24.50;;;10.20;99.90;;;;;;5015321;28;20452;-72
2021/04/21 04:20:59;;;;;;;34.07;24.93;;;10.20;99.90;;;;;;5016594;28;20990;-72
2021/04/21 04:23:25;;;;;;;29.00;23.83;;;10.20;99.90;;;;;;5012452;28;20446;-72
2021/04/21 04:25:57;;;;;;;33.13;23.63;;;10.30;99.90;;;;;;5008410;28;20505;-72
2021/04/21 04:28:29;;;;;;;25.77;22.00;;;10.30;99.90;;;;;;5009908;28;20446;-71
2021/04/21 04:30:56;;;;;;;29.50;22.80;;;10.40;99.90;;;;;;5008626;28;20751;-71
2021/04/21 04:33:24;;;;;;;27.10;23.43;;;10.40;99.90;;;;;;5004895;28;20446;-74
2021/04/21 04:35:50;;;;;;;29.40;23.30;;;10.40;99.90;;;;;;5007235;28;21018;-72
2021/04/21 04:38:16;;;;;;;29.93;25.07;;;10.40;99.90;;;;;;5012392;28;20986;-72
2021/04/21 04:40:41;;;;;;;32.03;24.77;;;10.40;99.90;;;;;;5010225;28;20449;-73
2021/04/21 04:43:09;;;;;;;29.13;23.60;;;10.40;99.90;;;;;;5016167;28;20227;-71
2021/04/21 04:45:38;;;;;;;31.60;23.03;;;10.50;99.90;;;;;;5017500;28;20179;-72
2021/04/21 04:48:06;;;;;;;27.20;22.97;;;10.50;99.90;;;;;;5016725;28;20987;-72
2021/04/21 04:50:33;;;;;;;28.40;23.13;;;10.60;99.90;;;;;;5014589;28;20422;-72
2021/04/21 04:53:00;;;;;;;28.60;23.50;;;10.60;99.90;;;;;;5014978;28;20423;-71
2021/04/21 04:55:27;;;;;;;29.97;22.47;;;10.70;99.90;;;;;;5017137;28;20457;-72
2021/04/21 04:57:54;;;;;;;27.30;23.23;;;10.70;99.90;;;;;;5017638;28;20462;-72
2021/04/21 05:00:23;;;;;;;32.23;24.30;;;10.80;99.90;;;;;;5017796;28;20433;-72
2021/04/21 05:03:00;;;;;;;26.03;21.60;;;10.80;99.90;;;;;;5017013;28;20837;-73
2021/04/21 05:05:27;;;;;;;27.50;22.63;;;10.90;99.90;;;;;;5016291;28;20758;-72
2021/04/21 05:08:03;;;;;;;31.93;25.00;;;10.90;99.90;;;;;;5018911;28;20436;-72
2021/04/21 05:10:33;;;;;;;27.90;23.20;;;10.80;99.90;;;;;;5018964;28;20904;-72
2021/04/21 05:13:03;;;;;;;35.53;22.00;;;10.90;99.90;;;;;;5015920;28;20414;-74
2021/04/21 05:15:32;;;;;;;25.70;22.33;;;10.90;99.90;;;;;;5014348;28;20461;-71
2021/04/21 05:18:24;;;;;;;27.30;24.40;;;11.00;99.90;;;;;;5022554;28;20484;-73
2021/04/21 05:21:18;;;;;;;28.07;22.73;;;11.10;99.90;;;;;;5024401;28;20462;-71
2021/04/21 05:24:08;;;;;;;27.83;22.83;;;11.20;99.90;;;;;;5018291;28;20437;-72
2021/04/21 05:26:48;;;;;;;30.17;24.10;;;11.20;99.90;;;;;;5034132;28;20457;-72
2021/04/21 05:29:23;;;;;;;28.33;23.03;;;11.30;99.90;;;;;;5013444;28;20505;-72
2021/04/21 05:32:26;;;;;;;27.70;23.50;;;11.30;99.90;;;;;;4994111;28;20402;-72
2021/04/21 05:35:28;;;;;;;26.73;22.60;;;11.40;99.90;;;;;;4995071;28;20847;-72
2021/04/21 05:38:33;;;;;;;28.47;23.20;;;11.40;99.90;;;;;;5010719;28;20509;-72
2021/04/21 05:41:31;;;;;;;29.03;24.20;;;11.50;99.90;;;;;;4995310;28;20399;-72
2021/04/21 05:44:27;;;;;;;30.00;24.23;;;11.50;99.90;;;;;;4995306;28;20478;-72
2021/04/21 05:47:10;;;;;;;28.07;23.33;;;11.60;99.90;;;;;;4995207;28;20916;-72
2021/04/21 05:50:03;;;;;;;28.10;23.50;;;11.60;99.90;;;;;;4995023;28;20881;-72
2021/04/21 05:53:25;;;;;;;25.50;22.70;;;11.60;99.90;;;;;;4995352;28;20403;-72
2021/04/21 05:56:15;;;;;;;30.50;24.27;;;11.60;99.90;;;;;;4976849;28;20509;-72
2021/04/21 05:59:10;;;;;;;31.27;23.80;;;11.60;99.90;;;;;;4993610;28;20885;-72
2021/04/21 06:01:43;;;;;;;31.00;25.30;;;11.60;99.90;;;;;;4942777;28;20437;-72
2021/04/21 06:04:09;;;;;;;29.20;25.17;;;11.70;99.90;;;;;;4993434;28;21023;-72
2021/04/21 06:06:34;;;;;;;32.20;23.70;;;11.70;99.90;;;;;;4992066;28;20451;-72
2021/04/21 06:09:10;;;;;;;29.47;23.60;;;11.70;99.90;;;;;;4992499;28;20184;-72
2021/04/21 06:11:36;;;;;;;32.43;24.87;;;11.70;99.90;;;;;;4991848;28;20713;-72
2021/04/21 06:14:05;;;;;;;30.97;25.70;;;11.70;99.90;;;;;;4992984;28;20415;-71
2021/04/21 06:16:33;;;;;;;30.70;24.40;;;11.80;99.90;;;;;;4992939;28;20538;-72
2021/04/21 06:19:03;;;;;;;29.77;25.07;;;11.80;99.90;;;;;;4992958;28;20466;-72
2021/04/21 06:21:33;;;;;;;31.63;26.10;;;11.80;99.90;;;;;;4992587;28;20478;-73
2021/04/21 06:23:59;;;;;;;32.97;26.20;;;11.90;99.90;;;;;;4991921;28;20816;-73
2021/04/21 06:26:27;;;;;;;32.70;26.33;;;11.90;99.90;;;;;;4994003;28;20412;-73
2021/04/21 06:29:11;;;;;;;30.90;25.23;;;11.90;99.90;;;;;;4994993;28;20852;-73
2021/04/21 06:31:43;;;;;;;34.00;27.43;;;11.90;99.90;;;;;;5012157;28;20442;-72
2021/04/21 06:34:11;;;;;;;33.50;28.67;;;11.90;99.90;;;;;;5014844;28;20493;-72
2021/04/21 06:36:45;;;;;;;38.60;30.70;;;11.90;99.90;;;;;;5013648;28;20555;-72
2021/04/21 06:39:13;;;;;;;36.03;29.00;;;12.00;99.90;;;;;;5014014;28;20418;-72
2021/04/21 06:41:39;;;;;;;36.60;29.30;;;12.00;99.90;;;;;;5014013;28;21044;-72
2021/04/21 06:44:06;;;;;;;42.10;32.20;;;12.00;99.90;;;;;;5015015;28;20407;-72
2021/04/21 06:46:32;;;;;;;39.03;30.83;;;11.90;99.90;;;;;;5012258;28;20409;-72
2021/04/21 06:49:00;;;;;;;37.20;32.10;;;12.00;99.90;;;;;;5025446;28;20433;-72
2021/04/21 06:51:28;;;;;;;43.00;32.10;;;12.00;99.90;;;;;;5024430;28;20417;-72
2021/04/21 06:53:55;;;;;;;45.33;32.87;;;12.10;99.90;;;;;;5014434;28;20402;-73
2021/04/21 06:56:34;;;;;;;47.23;34.30;;;12.20;99.90;;;;;;5026813;28;20532;-71
2021/04/21 06:59:01;;;;;;;40.30;32.70;;;12.30;99.90;;;;;;5036561;28;20441;-71
2021/04/21 07:01:28;;;;;;;38.50;31.50;;;12.50;99.90;;;;;;5038518;28;20397;-72
2021/04/21 07:04:09;;;;;;;49.07;34.50;;;12.60;99.90;;;;;;5032330;28;20529;-72
2021/04/21 07:06:35;;;;;;;46.23;34.77;;;12.70;99.90;;;;;;5017450;28;20454;-72
2021/04/21 07:09:00;;;;;;;48.57;35.70;;;12.60;99.90;;;;;;5017959;28;20496;-72
2021/04/21 07:11:26;;;;;;;48.63;35.07;;;12.60;99.90;;;;;;5018780;28;20245;-72
2021/04/21 07:13:52;;;;;;;47.70;36.87;;;12.60;99.90;;;;;;5016521;28;20187;-72
2021/04/21 07:16:19;;;;;;;49.23;36.40;;;12.70;99.90;;;;;;5024410;28;20453;-72
2021/04/21 07:18:55;;;;;;;47.53;35.87;;;12.80;99.90;;;;;;5026197;28;20942;-72
2021/04/21 07:21:21;;;;;;;48.63;38.17;;;12.90;99.90;;;;;;5024359;28;20447;-72
2021/04/21 07:23:53;;;;;;;47.33;37.50;;;13.00;99.90;;;;;;5023990;28;20438;-72
2021/04/21 07:26:29;;;;;;;47.93;38.57;;;13.10;99.90;;;;;;5024305;28;20399;-72
2021/04/21 07:28:56;;;;;;;49.23;37.70;;;13.20;99.90;;;;;;5024072;28;20413;-71
2021/04/21 07:31:21;;;;;;;47.90;37.10;;;13.20;99.90;;;;;;5024241;28;20437;-72
2021/04/21 07:33:59;;;;;;;48.63;39.60;;;13.20;99.90;;;;;;5023920;28;20768;-71
2021/04/21 07:36:28;;;;;;;47.23;35.67;;;13.30;99.90;;;;;;5022914;28;20194;-72
2021/04/21 07:38:55;;;;;;;45.27;37.47;;;13.30;99.90;;;;;;5017122;28;20430;-72
2021/04/21 07:41:38;;;;;;;52.53;39.30;;;13.30;99.90;;;;;;5017410;28;20473;-72
2021/04/21 07:44:06;;;;;;;45.30;37.17;;;13.40;99.90;;;;;;5017727;28;20390;-72
2021/04/21 07:46:32;;;;;;;49.13;39.13;;;13.30;99.90;;;;;;5017742;28;20417;-72
2021/04/21 07:48:58;;;;;;;47.57;38.20;;;13.30;99.90;;;;;;5016987;28;20926;-72
2021/04/21 07:51:24;;;;;;;49.30;37.33;;;13.30;99.90;;;;;;5017269;28;20425;-71
2021/04/21 07:53:53;;;;;;;47.93;37.23;;;13.30;99.90;;;;;;5016971;28;20493;-72
2021/04/21 07:56:21;;;;;;;47.73;37.90;;;13.40;99.90;;;;;;5032341;28;20461;-72
2021/04/21 07:58:47;;;;;;;44.60;37.23;;;13.40;99.90;;;;;;5035563;28;20412;-71
2021/04/21 08:01:13;;;;;;;46.47;37.97;;;13.70;99.90;;;;;;5037516;28;20401;-72
2021/04/21 08:03:39;;;;;;;49.40;38.83;;;13.90;99.90;;;;;;5036397;28;20410;-72
2021/04/21 08:06:05;;;;;;;46.20;37.13;;;14.10;99.90;;;;;;5036552;28;20167;-72
2021/04/21 08:08:32;;;;;;;47.38;38.88;;;14.20;99.90;;;;;;5035865;28;20424;-72
2021/04/21 08:10:59;;;;;;;43.77;37.07;;;14.30;99.60;;;;;;5035784;28;20178;-72
2021/04/21 08:13:46;;;;;;;44.90;37.77;;;14.50;99.70;;;;;;5036177;28;20417;-72
2021/04/21 08:16:32;;;;;;;45.30;36.47;;;14.30;98.60;;;;;;5037103;28;20540;-72
2021/04/21 08:18:59;;;;;;;41.13;35.20;;;14.30;98.60;;;;;;5036604;28;20386;-71
2021/04/21 08:21:36;;;;;;;40.37;35.83;;;14.40;98.80;;;;;;5037121;28;20397;-72
2021/04/21 08:24:07;;;;;;;40.50;33.93;;;14.50;98.80;;;;;;5036019;28;20405;-72
2021/04/21 08:26:33;;;;;;;42.37;35.47;;;14.60;98.70;;;;;;5035029;28;20465;-72
2021/04/21 08:29:03;;;;;;;41.30;35.13;;;14.60;98.60;;;;;;5036604;28;20499;-73
2021/04/21 08:31:29;;;;;;;40.27;34.50;;;14.70;98.60;;;;;;5034966;28;20414;-72
2021/04/21 08:33:55;;;;;;;40.20;34.53;;;14.90;98.60;;;;;;5037175;28;20752;-72
2021/04/21 08:36:21;;;;;;;44.30;35.43;;;14.90;98.20;;;;;;5036925;28;20469;-72
2021/04/21 08:38:48;;;;;;;43.13;34.10;;;15.00;97.90;;;;;;5054195;28;20536;-72
2021/04/21 08:41:17;;;;;;;39.60;34.10;;;15.00;97.80;;;;;;5056924;28;20489;-72
2021/04/21 08:43:48;;;;;;;40.60;33.47;;;15.10;97.70;;;;;;5057198;28;20520;-72
2021/04/21 08:46:14;;;;;;;46.33;33.87;;;15.20;97.60;;;;;;5057153;28;20398;-73
2021/04/21 08:48:41;;;;;;;48.70;32.77;;;15.20;97.30;;;;;;5052901;28;20521;-72
2021/04/21 08:51:08;;;;;;;42.53;33.27;;;15.40;97.20;;;;;;5035630;28;20425;-72
2021/04/21 08:53:36;;;;;;;37.20;32.50;;;15.40;96.80;;;;;;5036188;28;20479;-72
2021/04/21 08:56:04;;;;;;;37.17;33.17;;;15.50;96.80;;;;;;5021820;28;20811;-72
2021/04/21 08:58:31;;;;;;;37.90;30.23;;;15.60;96.40;;;;;;5016183;28;20431;-73
2021/04/21 09:00:57;;;;;;;35.77;29.77;;;15.70;96.10;;;;;;5016343;28;20628;-74
2021/04/21 09:03:23;;;;;;;35.07;28.73;;;15.70;95.10;;;;;;5015957;28;20923;-73
2021/04/21 09:05:48;;;;;;;34.40;29.87;;;15.80;95.10;;;;;;5016119;28;20442;-73
2021/04/21 09:08:14;;;;;;;35.40;27.07;;;15.70;93.60;;;;;;5014516;28;20204;-73
2021/04/21 09:10:40;;;;;;;30.07;26.60;;;15.70;94.00;;;;;;5013808;28;20186;-72
2021/04/21 09:13:06;;;;;;;34.33;27.50;;;15.70;93.90;;;;;;5015841;28;20259;-72
2021/04/21 09:15:31;;;;;;;34.57;24.70;;;15.80;93.50;;;;;;5013933;28;20462;-74
2021/04/21 09:17:57;;;;;;;31.60;25.50;;;15.90;92.70;;;;;;5014820;28;20539;-73
2021/04/21 09:20:25;;;;;;;26.63;22.90;;;16.10;92.20;;;;;;5015468;28;20218;-73
2021/04/21 09:23:06;;;;;;;28.67;25.57;;;16.10;91.30;;;;;;5015240;28;20415;-73
2021/04/21 09:25:37;;;;;;;28.70;22.57;;;16.20;91.00;;;;;;5016699;28;20403;-73
2021/04/21 09:28:04;;;;;;;25.37;22.53;;;16.30;91.60;;;;;;5013774;28;20446;-75
2021/04/21 09:30:30;;;;;;;27.90;24.90;;;16.40;90.20;;;;;;5015729;28;20438;-73
2021/04/21 09:32:57;;;;;;;26.50;21.60;;;16.40;90.30;;;;;;5016652;28;20415;-73
2021/04/21 09:35:33;;;;;;;23.60;21.07;;;16.40;89.10;;;;;;5018389;28;20458;-72
2021/04/21 09:38:01;;;;;;;23.30;19.30;;;16.30;86.40;;;;;;5029184;28;20453;-72
2021/04/21 09:40:42;;;;;;;20.17;16.83;;;16.40;86.60;;;;;;5017860;28;20429;-72
2021/04/21 09:43:30;;;;;;;18.00;16.10;;;16.50;82.10;;;;;;5021996;28;20437;-72
2021/04/21 09:46:01;;;;;;;16.63;14.97;;;16.60;78.20;;;;;;5020529;28;20512;-72
2021/04/21 09:48:36;;;;;;;26.40;15.40;;;16.60;79.10;;;;;;5013691;28;20477;-73
2021/04/21 09:51:05;;;;;;;15.70;13.37;;;16.70;78.20;;;;;;5015542;28;20839;-72
2021/04/21 09:53:43;;;;;;;14.73;13.23;;;16.70;75.00;;;;;;5014805;28;20434;-72
2021/04/21 09:56:14;;;;;;;16.00;12.50;;;16.70;73.80;;;;;;5028702;28;20907;-72
2021/04/21 09:58:56;;;;;;;16.47;12.80;;;16.60;69.30;;;;;;5015408;28;20505;-72
2021/04/21 10:01:42;;;;;;;16.50;12.20;;;16.50;68.80;;;;;;5015095;28;20405;-73
2021/04/21 10:04:19;;;;;;;17.10;11.90;;;16.60;69.90;;;;;;5029066;28;20485;-72
2021/04/21 10:06:55;;;;;;;12.83;11.50;;;16.70;66.00;;;;;;5014873;28;20514;-73
2021/04/21 10:09:27;;;;;;;12.67;11.40;;;16.80;66.70;;;;;;5014641;28;20411;-72
2021/04/21 10:12:19;;;;;;;14.60;13.17;;;16.90;66.60;;;;;;5014582;28;20438;-72
2021/04/21 10:15:00;;;;;;;14.57;13.07;;;16.80;66.20;;;;;;5013178;28;20438;-71
2021/04/21 10:17:30;;;;;;;14.67;13.27;;;16.90;68.20;;;;;;5013993;28;20627;-72
2021/04/21 10:20:00;;;;;;;14.27;12.67;;;17.00;66.10;;;;;;5014188;28;20466;-71
2021/04/21 10:22:26;;;;;;;14.32;12.93;;;17.00;67.30;;;;;;5013613;28;20418;-71
2021/04/21 10:24:53;;;;;;;14.83;13.40;;;17.00;64.20;;;;;;5014010;28;20262;-72
2021/04/21 10:27:19;;;;;;;14.77;11.97;;;17.00;64.30;;;;;;5014249;28;20434;-74
2021/04/21 10:29:46;;;;;;;14.57;13.10;;;17.10;64.20;;;;;;5013875;28;20426;-73
2021/04/21 10:32:15;;;;;;;14.70;13.00;;;17.10;65.20;;;;;;5013185;28;20410;-73
2021/04/21 10:34:44;;;;;;;13.87;12.57;;;17.20;66.30;;;;;;5014245;28;20900;-73
2021/04/21 10:37:11;;;;;;;13.50;12.20;;;17.40;66.40;;;;;;5013788;28;20462;-73
2021/04/21 10:39:38;;;;;;;13.87;12.53;;;17.40;64.00;;;;;;5013841;28;20410;-71
2021/04/21 10:42:06;;;;;;;14.23;12.80;;;17.30;62.10;;;;;;5014299;28;21003;-72
2021/04/21 10:44:33;;;;;;;14.43;12.93;;;17.30;63.40;;;;;;5013554;28;20786;-72
2021/04/21 10:47:03;;;;;;;12.93;11.73;;;17.20;63.00;;;;;;5013950;28;20505;-71
2021/04/21 10:49:38;;;;;;;14.33;12.93;;;17.10;61.90;;;;;;5014043;28;20418;-71
2021/04/21 10:52:13;;;;;;;15.30;13.70;;;16.80;63.60;;;;;;5014265;28;20450;-71
2021/04/21 10:54:38;;;;;;;14.47;12.57;;;16.80;63.50;;;;;;5015595;28;20465;-71
2021/04/21 10:57:43;;;;;;;15.23;13.63;;;16.80;61.50;;;;;;5032256;28;21017;-71
2021/04/21 11:00:23;;;;;;;13.40;12.27;;;16.80;62.40;;;;;;4992645;28;20188;-72
2021/04/21 11:02:55;;;;;;;12.80;11.50;;;17.00;63.60;;;;;;4992433;28;20404;-72
2021/04/21 11:05:28;;;;;;;13.57;12.17;;;16.90;61.40;;;;;;4994797;28;20490;-72
2021/04/21 11:08:02;;;;;;;17.63;12.70;;;16.90;61.60;;;;;;4975512;28;20469;-72
2021/04/21 11:10:32;;;;;;;14.40;12.95;;;16.90;61.20;;;;;;4991671;28;20417;-72
2021/04/21 11:13:01;;;;;;;15.73;14.03;;;16.90;60.70;;;;;;4992160;28;20474;-72
2021/04/21 11:15:34;;;;;;;18.43;14.43;;;16.90;61.80;;;;;;4987561;28;20451;-73
2021/04/21 11:18:12;;;;;;;15.07;13.57;;;17.00;62.20;;;;;;4987132;28;20467;-72
2021/04/21 11:20:46;;;;;;;13.93;12.70;;;16.90;61.70;;;;;;4991005;28;20421;-73
2021/04/21 11:23:52;;;;;;;14.00;12.37;;;17.00;61.10;;;;;;4991449;28;20566;-74
2021/04/21 11:26:27;;;;;;;15.73;12.90;;;16.90;60.50;;;;;;4991302;28;20414;-74
2021/04/21 11:29:15;;;;;;;14.70;13.27;;;17.00;62.00;;;;;;4992222;28;20431;-74
2021/04/21 11:31:52;;;;;;;15.13;12.90;;;17.10;62.90;;;;;;4985485;28;20493;-74
2021/04/21 11:34:34;;;;;;;15.00;13.47;;;17.30;66.40;;;;;;4985409;28;20555;-74
2021/04/21 11:37:19;;;;;;;18.00;14.30;;;17.40;65.60;;;;;;5019743;28;20480;-74
2021/04/21 11:39:46;;;;;;;18.30;16.30;;;17.50;64.50;;;;;;5025615;28;20432;-74
2021/04/21 11:42:31;;;;;;;19.37;17.33;;;17.60;64.10;;;;;;5004435;28;20439;-74
2021/04/21 11:45:11;;;;;;;19.23;16.63;;;17.30;64.10;;;;;;5003447;28;20931;-74
2021/04/21 11:47:45;;;;;;;15.87;14.13;;;17.20;66.10;;;;;;5001394;28;20492;-74
2021/04/21 11:50:28;;;;;;;18.90;16.93;;;17.40;70.30;;;;;;5004355;28;20464;-73
2021/04/21 11:53:07;;;;;;;17.83;16.03;;;17.40;65.40;;;;;;5019452;28;20426;-73
2021/04/21 11:55:45;;;;;;;19.93;17.77;;;17.50;66.20;;;;;;5019495;28;20460;-74
2021/04/21 11:58:12;;;;;;;25.10;22.40;;;17.50;65.50;;;;;;5015214;28;20684;-73
2021/04/21 12:00:43;;;;;;;23.47;20.87;;;17.60;66.30;;;;;;5013843;28;20501;-73
2021/04/21 12:03:22;;;;;;;36.93;33.03;;;17.50;64.90;;;;;;5012997;28;21073;-74
2021/04/21 12:05:52;;;;;;;24.75;22.05;;;17.60;69.50;;;;;;5014579;28;20435;-73
2021/04/21 12:08:19;;;;;;;62.37;52.53;;;17.70;65.80;;;;;;5006444;28;20203;-74
2021/04/21 12:10:46;;;;;;;52.33;38.60;;;17.80;69.60;;;;;;5011585;28;20432;-73
2021/04/21 12:13:34;;;;;;;46.13;35.33;;;18.00;67.50;;;;;;5013532;28;20796;-74
2021/04/21 12:16:14;;;;;;;22.73;20.40;;;17.70;64.20;;;;;;5005226;28;20469;-74
2021/04/21 12:18:43;;;;;;;17.00;15.30;;;17.40;63.10;;;;;;5012240;28;20426;-74
2021/04/21 12:21:15;;;;;;;17.17;15.37;;;17.20;62.90;;;;;;5010021;28;20425;-72
2021/04/21 12:23:41;;;;;;;15.90;14.30;;;17.10;63.30;;;;;;5020418;28;20504;-73
2021/04/21 12:26:26;;;;;;;15.03;13.43;;;17.10;64.10;;;;;;5015471;28;20898;-73
2021/04/21 12:28:56;;;;;;;13.93;12.50;;;17.30;64.00;;;;;;5011716;28;20434;-73
2021/04/21 12:31:23;;;;;;;12.70;11.50;;;17.40;64.40;;;;;;5015029;28;20457;-73
2021/04/21 12:33:50;;;;;;;14.57;13.17;;;17.40;63.70;;;;;;5013474;28;20890;-73
2021/04/21 12:36:18;;;;;;;14.90;12.27;;;17.30;63.00;;;;;;5020415;28;20516;-73
2021/04/21 12:38:44;;;;;;;14.20;12.63;;;17.10;63.70;;;;;;5013414;28;20440;-73
2021/04/21 12:41:18;;;;;;;14.20;12.70;;;17.20;64.40;;;;;;5012404;28;20442;-72
2021/04/21 12:43:44;;;;;;;15.33;12.80;;;17.20;62.90;;;;;;5011931;28;20851;-73
2021/04/21 12:46:14;;;;;;;13.03;11.63;;;17.20;62.80;;;;;;5011553;28;20418;-73
2021/04/21 12:48:48;;;;;;;12.90;11.60;;;17.00;61.70;;;;;;5013664;28;20514;-71
2021/04/21 12:51:31;;;;;;;15.10;13.27;;;16.90;62.70;;;;;;5010384;28;20517;-72
2021/04/21 12:54:02;;;;;;;15.70;14.10;;;17.00;62.10;;;;;;5004706;28;20429;-71
2021/04/21 12:56:36;;;;;;;15.20;13.68;;;16.90;62.40;;;;;;5010572;28;20947;-72
2021/04/21 12:59:13;;;;;;;15.83;14.10;;;16.90;62.30;;;;;;5012303;28;20185;-72